Time;durP1;ratioP1;P1;durP2;ratioP2;P2;SDS_P1;SDS_P2;PMS_P1;PMS_P2;Temp;Humidity;BMP_temperature;BMP_pressure;BME280_temperature;BME280_humidity;BME280_pressure;Samples;Min_cycle;Max_cycle;Signal;HPM_P1;HPM_P2
2022/04/07 00:02:12;;;;;;;9.60;3.88;;;9.00;99.90;;;;;;4773933;29;20141;-96
2022/04/07 00:05:06;;;;;;;16.08;4.00;;;9.10;99.90;;;;;;4817756;29;20056;-96
2022/04/07 00:07:53;;;;;;;13.45;3.72;;;9.50;99.90;;;;;;4852937;29;20064;-96
2022/04/07 00:10:46;;;;;;;16.33;3.65;;;9.90;99.90;;;;;;4862802;29;20136;-96
2022/04/07 00:13:42;;;;;;;14.82;3.83;;;10.00;99.90;;;;;;4853160;29;20045;-96
2022/04/07 00:16:52;;;;;;;15.65;3.85;;;9.10;99.90;;;;;;4861370;29;20061;-96
2022/04/07 00:19:39;;;;;;;16.85;3.78;;;9.10;99.90;;;;;;4846194;29;20084;-96
2022/04/07 00:22:39;;;;;;;9.82;3.10;;;9.00;99.90;;;;;;4860837;29;20107;-96
2022/04/07 00:25:19;;;;;;;10.10;2.92;;;9.00;99.90;;;;;;4855888;29;20218;-96
2022/04/07 00:28:06;;;;;;;14.05;3.28;;;9.20;99.90;;;;;;4860689;29;20105;-95
2022/04/07 00:31:39;;;;;;;10.48;2.70;;;9.00;99.90;;;;;;4860140;29;20060;-96
2022/04/07 00:34:44;;;;;;;10.70;2.45;;;9.00;99.90;;;;;;4860203;29;20430;-95
2022/04/07 00:37:16;;;;;;;9.63;2.55;;;8.90;99.90;;;;;;4831666;29;20559;-96
2022/04/07 00:40:16;;;;;;;6.43;1.70;;;8.90;99.90;;;;;;4862832;29;20413;-96
2022/04/07 00:43:18;;;;;;;8.68;1.80;;;8.60;99.90;;;;;;4861574;29;20099;-95
2022/04/07 00:46:30;;;;;;;13.73;2.35;;;8.80;99.90;;;;;;4860134;29;20109;-96
2022/04/07 00:49:21;;;;;;;10.70;2.50;;;8.80;99.90;;;;;;4827692;29;20108;-96
2022/04/07 00:52:38;;;;;;;8.85;1.98;;;8.90;99.90;;;;;;4855996;29;20057;-96
2022/04/07 00:55:39;;;;;;;16.00;2.10;;;8.80;99.90;;;;;;4840471;29;20510;-95
2022/04/07 00:58:30;;;;;;;12.82;2.90;;;9.70;99.90;;;;;;4853009;29;20544;-95
2022/04/07 01:01:08;;;;;;;16.10;2.40;;;9.80;99.90;;;;;;4844044;29;20045;-96
2022/04/07 01:04:28;;;;;;;10.55;2.83;;;8.90;99.90;;;;;;4846873;29;20061;-96
2022/04/07 01:07:47;;;;;;;14.43;2.42;;;8.90;99.90;;;;;;4876562;29;20524;-96
2022/04/07 01:10:21;;;;;;;13.07;3.22;;;9.90;99.90;;;;;;4833657;29;20060;-95
2022/04/07 01:13:19;;;;;;;14.07;3.10;;;8.50;99.90;;;;;;4844996;29;20048;-96
2022/04/07 01:16:30;;;;;;;12.15;2.53;;;8.90;99.90;;;;;;4848217;29;20060;-96
2022/04/07 01:19:28;;;;;;;18.27;3.58;;;8.60;99.90;;;;;;4835205;29;20063;-96
2022/04/07 01:22:32;;;;;;;12.85;2.53;;;8.90;99.90;;;;;;4861857;29;20053;-96
2022/04/07 01:25:31;;;;;;;19.77;2.85;;;9.50;99.90;;;;;;4844457;29;20148;-96
2022/04/07 01:31:44;;;;;;;17.10;3.25;;;8.90;99.90;;;;;;4829870;29;20060;-96
2022/04/07 01:34:34;;;;;;;14.82;3.03;;;8.80;99.90;;;;;;4845179;29;20116;-96
2022/04/07 01:37:25;;;;;;;16.42;2.95;;;8.80;99.90;;;;;;4874084;29;20491;-96
2022/04/07 01:40:13;;;;;;;15.82;1.83;;;9.30;99.90;;;;;;4859121;29;20061;-96
2022/04/07 01:42:54;;;;;;;13.93;2.40;;;8.50;99.90;;;;;;4875318;29;20156;-96
2022/04/07 01:45:45;;;;;;;17.05;2.67;;;8.70;99.90;;;;;;4843197;29;20489;-96
2022/04/07 01:48:34;;;;;;;18.05;2.95;;;8.30;99.90;;;;;;4858285;29;20467;-96
2022/04/07 01:51:15;;;;;;;19.35;3.90;;;8.60;99.90;;;;;;4858536;29;20055;-96
2022/04/07 01:53:57;;;;;;;17.73;3.70;;;8.60;99.90;;;;;;4838384;29;20399;-96
2022/04/07 01:56:55;;;;;;;16.02;3.55;;;7.80;99.90;;;;;;4845018;29;20113;-96
2022/04/07 01:59:40;;;;;;;;;;;;;;;;;;;;;
2022/04/07 02:02:27;;;;;;;16.75;3.70;;;8.60;99.90;;;;;;4873489;29;20186;-95
2022/04/07 02:05:28;;;;;;;13.85;3.75;;;8.60;99.90;;;;;;4845032;29;20056;-96
2022/04/07 02:11:22;;;;;;;18.55;3.72;;;8.60;99.90;;;;;;4797336;29;20144;-95
2022/04/07 02:14:03;;;;;;;20.17;3.85;;;8.60;99.90;;;;;;4843854;29;20084;-95
2022/04/07 02:17:06;;;;;;;24.70;4.40;;;8.60;99.90;;;;;;4844000;29;20117;-96
2022/04/07 02:19:50;;;;;;;13.93;3.90;;;9.20;99.90;;;;;;4832039;29;20172;-96
2022/04/07 02:25:38;;;;;;;16.17;3.47;;;8.50;99.90;;;;;;4813304;29;20093;-96
2022/04/07 02:28:09;;;;;;;23.40;4.30;;;8.60;99.90;;;;;;4779284;29;20614;-96
2022/04/07 02:30:57;;;;;;;18.13;3.60;;;8.20;99.90;;;;;;4863997;29;20577;-95
2022/04/07 02:33:45;;;;;;;;;;;;;;;;;;;;;
2022/04/07 02:36:32;;;;;;;19.65;3.33;;;8.30;99.90;;;;;;4862139;29;20395;-95
2022/04/07 02:39:16;;;;;;;26.37;4.07;;;8.60;99.90;;;;;;4848213;29;20420;-96
2022/04/07 02:42:13;;;;;;;23.58;4.00;;;8.80;99.90;;;;;;4839675;29;20301;-94
2022/04/07 02:44:48;;;;;;;29.55;4.10;;;8.60;99.90;;;;;;4815830;29;20064;-94
2022/04/07 02:47:39;;;;;;;23.75;4.05;;;8.60;99.90;;;;;;4862916;29;20053;-94
2022/04/07 02:53:41;;;;;;;30.13;4.47;;;8.70;99.90;;;;;;4833041;29;20501;-94
2022/04/07 02:56:18;;;;;;;28.48;4.72;;;8.70;99.90;;;;;;4862092;29;20045;-94
2022/04/07 02:59:18;;;;;;;23.73;4.63;;;8.70;99.90;;;;;;4855104;29;20113;-93
2022/04/07 03:03:04;;;;;;;22.40;4.43;;;8.70;99.90;;;;;;4847393;29;20063;-94
2022/04/07 03:06:20;;;;;;;21.63;4.15;;;8.40;99.90;;;;;;4788553;29;20063;-94
2022/04/07 03:09:03;;;;;;;25.50;5.38;;;8.70;99.90;;;;;;4837645;29;20060;-94
2022/04/07 03:15:28;;;;;;;16.92;4.15;;;9.00;99.90;;;;;;4843178;29;20144;-94
2022/04/07 03:19:25;;;;;;;20.27;4.75;;;8.70;99.90;;;;;;4822629;29;20096;-95
2022/04/07 03:22:04;;;;;;;24.05;4.53;;;9.30;99.90;;;;;;4839215;29;20151;-94
2022/04/07 03:28:59;;;;;;;;;;;;;;;;;;;;;
2022/04/07 03:31:16;;;;;;;20.80;4.50;;;8.30;99.90;;;;;;4830549;29;20587;-94
2022/04/07 03:34:49;;;;;;;20.25;5.10;;;9.80;99.90;;;;;;4794964;29;20063;-94
2022/04/07 03:37:44;;;;;;;27.77;4.28;;;8.70;99.90;;;;;;4748757;29;20686;-94
2022/04/07 03:40:32;;;;;;;19.60;4.30;;;8.70;99.90;;;;;;4780824;29;20066;-95
2022/04/07 03:43:31;;;;;;;30.70;4.72;;;8.80;99.90;;;;;;4841058;29;20061;-93
2022/04/07 03:46:57;;;;;;;21.55;3.80;;;9.80;99.90;;;;;;4855765;29;20117;-93
2022/04/07 03:49:40;;;;;;;21.63;3.63;;;8.80;99.90;;;;;;4839268;29;20061;-93
2022/04/07 03:52:33;;;;;;;13.63;2.75;;;8.80;99.90;;;;;;4826551;29;20064;-94
2022/04/07 03:55:28;;;;;;;18.50;3.28;;;8.80;99.90;;;;;;4827662;29;20517;-95
2022/04/07 03:58:14;;;;;;;20.02;3.22;;;9.10;99.90;;;;;;4827233;29;20057;-94
2022/04/07 04:01:24;;;;;;;13.32;3.40;;;8.80;99.90;;;;;;4844283;29;20060;-93
2022/04/07 04:04:37;;;;;;;14.50;3.50;;;8.80;99.90;;;;;;4818997;29;20058;-94
2022/04/07 04:07:39;;;;;;;17.20;2.95;;;8.80;99.90;;;;;;4826499;29;20060;-94
2022/04/07 04:10:35;;;;;;;21.23;3.67;;;8.80;99.90;;;;;;4850094;29;20065;-94
2022/04/07 04:13:10;;;;;;;29.42;5.78;;;8.70;99.90;;;;;;4845697;29;20088;-94
2022/04/07 04:19:48;;;;;;;23.60;4.75;;;8.80;99.90;;;;;;4814156;29;20131;-93
2022/04/07 04:22:39;;;;;;;21.30;4.97;;;8.70;99.90;;;;;;4828680;29;20136;-94
2022/04/07 04:25:33;;;;;;;;;;;9.20;99.90;;;;;;4849421;29;20057;-95
2022/04/07 04:28:32;;;;;;;21.27;4.18;;;8.80;99.90;;;;;;4844999;29;20471;-94
2022/04/07 04:32:03;;;;;;;20.75;4.20;;;8.70;99.90;;;;;;4864480;29;20128;-94
2022/04/07 04:35:13;;;;;;;;;;;;;;;;;;;;;
2022/04/07 04:38:26;;;;;;;19.42;3.40;;;8.70;99.90;;;;;;4858812;29;20060;-93
2022/04/07 04:44:53;;;;;;;23.48;3.88;;;8.60;99.90;;;;;;4863016;29;20060;-94
2022/04/07 04:47:54;;;;;;;20.00;3.92;;;8.60;99.90;;;;;;4853920;29;20052;-95
2022/04/07 04:50:22;;;;;;;23.65;4.07;;;8.60;99.90;;;;;;4858917;29;20056;-94
2022/04/07 04:53:22;;;;;;;28.85;3.95;;;8.50;99.90;;;;;;4860190;29;20053;-94
2022/04/07 04:56:00;;;;;;;24.20;3.97;;;8.50;99.90;;;;;;4860454;29;20371;-95
2022/04/07 04:58:34;;;;;;;24.98;4.05;;;8.50;99.90;;;;;;4853072;29;20081;-93
2022/04/07 05:01:59;;;;;;;22.88;4.00;;;8.50;99.90;;;;;;4862756;29;20095;-94
2022/04/07 05:05:25;;;;;;;25.73;4.80;;;8.30;99.90;;;;;;4817887;29;20497;-95
2022/04/07 05:08:10;;;;;;;23.67;4.40;;;8.50;99.90;;;;;;4893066;29;20433;-94
2022/04/07 05:11:14;;;;;;;27.05;4.55;;;8.70;99.90;;;;;;4821486;29;20100;-94
2022/04/07 05:13:59;;;;;;;23.47;4.37;;;8.70;99.90;;;;;;4865279;29;20060;-93
2022/04/07 05:16:48;;;;;;;28.35;4.53;;;8.80;99.90;;;;;;4873657;29;20300;-94
2022/04/07 05:19:22;;;;;;;20.02;4.93;;;9.30;99.90;;;;;;4842097;29;20056;-93
2022/04/07 05:22:10;;;;;;;13.45;3.00;;;8.20;99.90;;;;;;4882522;29;20048;-94
2022/04/07 05:24:44;;;;;;;19.92;3.20;;;8.40;99.90;;;;;;4881669;29;20048;-95
2022/04/07 05:27:37;;;;;;;14.25;2.35;;;8.30;99.90;;;;;;4899248;29;20424;-94
2022/04/07 05:34:25;;;;;;;16.65;2.05;;;8.10;99.90;;;;;;4846710;29;20131;-95
2022/04/07 05:37:18;;;;;;;7.22;1.63;;;7.80;99.90;;;;;;4850854;29;20063;-95
2022/04/07 05:40:41;;;;;;;7.50;1.23;;;7.20;99.90;;;;;;4867183;29;20569;-95
2022/04/07 05:44:17;;;;;;;5.28;1.15;;;7.30;99.90;;;;;;4828942;29;20048;-96
2022/04/07 05:47:28;;;;;;;11.70;1.80;;;7.00;99.90;;;;;;4863714;29;20056;-94
2022/04/07 05:50:28;;;;;;;6.47;1.33;;;6.90;99.90;;;;;;4877486;29;20123;-93
2022/04/07 05:53:18;;;;;;;10.55;1.88;;;6.70;99.90;;;;;;4871781;29;20107;-96
2022/04/07 06:00:19;;;;;;;17.40;1.93;;;6.50;99.90;;;;;;4767023;29;20121;-96
2022/04/07 06:03:17;;;;;;;11.75;1.98;;;6.60;99.90;;;;;;4831011;29;20837;-95
2022/04/07 06:06:31;;;;;;;11.82;1.60;;;6.50;99.90;;;;;;4819158;29;20057;-95
2022/04/07 06:09:53;;;;;;;7.93;1.30;;;7.00;99.90;;;;;;4865724;29;20041;-96
2022/04/07 06:13:42;;;;;;;4.43;1.25;;;6.20;99.90;;;;;;4881475;29;20051;-95
2022/04/07 06:17:21;;;;;;;9.23;1.52;;;6.40;99.90;;;;;;4803493;29;20126;-96
2022/04/07 06:21:11;;;;;;;10.77;1.77;;;7.00;99.90;;;;;;4839890;29;20453;-96
2022/04/07 06:24:35;;;;;;;;;;;;;;;;;;;;;
2022/04/07 06:28:02;;;;;;;7.97;1.20;;;6.00;99.90;;;;;;4879013;29;20060;-95
2022/04/07 06:31:41;;;;;;;9.50;1.33;;;6.00;99.90;;;;;;4882082;29;20053;-95
2022/04/07 06:38:08;;;;;;;9.70;1.00;;;5.80;99.90;;;;;;4868444;29;20116;-96
2022/04/07 06:40:53;;;;;;;4.80;1.15;;;5.70;99.90;;;;;;4844856;29;20506;-96
2022/04/07 06:43:30;;;;;;;5.55;0.70;;;5.70;99.90;;;;;;4857938;29;20109;-95
2022/04/07 06:47:44;;;;;;;;;;;;;;;;;;;;;
2022/04/07 06:49:42;;;;;;;8.77;1.40;;;6.60;99.90;;;;;;4841792;29;20518;-96
2022/04/07 06:52:45;;;;;;;6.22;1.40;;;6.00;99.90;;;;;;4863237;29;20332;-95
2022/04/07 06:55:24;;;;;;;4.97;1.17;;;5.50;99.90;;;;;;4852944;29;20061;-95
2022/04/07 06:58:13;;;;;;;6.72;1.73;;;5.70;99.90;;;;;;4858985;29;20088;-96
2022/04/07 07:00:57;;;;;;;5.85;0.82;;;6.00;99.90;;;;;;4842944;29;20096;-94
2022/04/07 07:04:04;;;;;;;7.85;1.50;;;5.80;99.90;;;;;;4858243;29;20049;-94
2022/04/07 07:06:47;;;;;;;8.80;1.92;;;5.80;99.90;;;;;;4859030;29;20137;-95
2022/04/07 07:10:35;;;;;;;8.52;1.35;;;5.50;99.90;;;;;;4851155;29;20076;-95
2022/04/07 07:12:59;;;;;;;;;;;;;;;;;;;;;
2022/04/07 07:18:53;;;;;;;8.30;1.13;;;5.80;99.90;;;;;;4845831;29;20573;-95
2022/04/07 07:22:12;;;;;;;2.60;0.70;;;5.80;99.90;;;;;;4838565;29;20064;-94
2022/04/07 07:25:44;;;;;;;6.53;0.93;;;5.90;99.90;;;;;;4836190;29;20140;-96
2022/04/07 07:30:59;;;;;;;;;;;5.50;99.90;;;;;;4863449;29;20061;-96
2022/04/07 07:34:07;;;;;;;6.65;0.80;;;6.00;99.90;;;;;;4828655;29;19935;-96
2022/04/07 07:36:59;;;;;;;8.60;1.25;;;6.10;99.90;;;;;;4843968;29;20053;-96
2022/04/07 07:40:15;;;;;;;6.07;0.85;;;6.00;99.90;;;;;;4834115;29;20055;-95
2022/04/07 07:45:29;;;;;;;6.32;0.80;;;6.10;99.90;;;;;;4925912;23;20068;-94
2022/04/07 07:48:29;;;;;;;4.53;0.70;;;6.10;99.90;;;;;;4882978;29;20049;-94
2022/04/07 07:50:56;;;;;;;7.72;1.00;;;6.10;99.90;;;;;;4864633;29;20497;-94
2022/04/07 07:53:45;;;;;;;5.40;0.93;;;6.80;99.90;;;;;;4863702;29;20530;-95
2022/04/07 07:56:52;;;;;;;4.60;0.60;;;7.40;99.90;;;;;;4866225;29;20413;-94
2022/04/07 07:59:43;;;;;;;5.22;0.85;;;6.20;99.90;;;;;;4856453;29;20508;-95
2022/04/07 08:03:09;;;;;;;6.10;0.90;;;6.30;99.90;;;;;;4865490;29;20096;-95
2022/04/07 08:05:41;;;;;;;7.43;1.13;;;6.30;99.90;;;;;;4850510;29;20068;-95
2022/04/07 08:08:45;;;;;;;4.88;0.77;;;6.40;99.90;;;;;;4863518;29;20147;-95
2022/04/07 08:12:02;;;;;;;4.43;0.95;;;6.60;99.90;;;;;;4801825;29;20493;-94
2022/04/07 08:15:09;;;;;;;6.55;0.93;;;6.80;99.90;;;;;;4830790;29;20061;-94
2022/04/07 08:21:04;;;;;;;7.22;1.20;;;6.60;99.90;;;;;;4895507;29;20060;-94
2022/04/07 08:24:36;;;;;;;8.85;1.10;;;6.80;99.90;;;;;;4851214;29;20195;-95
2022/04/07 08:27:50;;;;;;;8.07;1.10;;;7.30;99.90;;;;;;4828591;29;20114;-95
2022/04/07 08:32:15;;;;;;;5.07;0.82;;;7.20;99.90;;;;;;4842543;29;20133;-95
2022/04/07 08:34:15;;;;;;;6.70;1.25;;;7.70;99.90;;;;;;4834994;29;20054;-95
2022/04/07 08:37:21;;;;;;;7.40;0.80;;;7.50;99.90;;;;;;4824865;29;20049;-95
2022/04/07 08:40:05;;;;;;;11.80;1.25;;;7.70;99.90;;;;;;4826318;29;20063;-95
2022/04/07 08:42:52;;;;;;;9.00;1.40;;;7.90;99.90;;;;;;4843871;29;20109;-94
2022/04/07 08:46:17;;;;;;;8.70;1.13;;;8.10;99.90;;;;;;4859166;29;20121;-95
2022/04/07 08:49:39;;;;;;;7.15;1.00;;;8.20;99.90;;;;;;4868746;29;20546;-96
2022/04/07 08:52:44;;;;;;;7.10;1.10;;;8.40;99.90;;;;;;4852368;29;20072;-95
2022/04/07 08:56:40;;;;;;;;;;;;;;;;;;;;;
2022/04/07 09:00:16;;;;;;;5.35;1.00;;;8.70;99.90;;;;;;4881767;29;20063;-96
2022/04/07 09:02:22;;;;;;;7.30;1.23;;;8.90;99.90;;;;;;4869784;29;20049;-96
2022/04/07 09:05:28;;;;;;;10.82;1.15;;;9.00;99.90;;;;;;4872940;29;20501;-96
2022/04/07 09:08:41;;;;;;;8.80;0.90;;;9.10;99.90;;;;;;4879777;29;20147;-96
2022/04/07 09:18:48;;;;;;;11.68;1.20;;;9.40;99.90;;;;;;4857968;29;20061;-96
2022/04/07 09:21:57;;;;;;;14.13;1.93;;;9.70;99.90;;;;;;4836328;29;20064;-96
2022/04/07 09:24:58;;;;;;;7.45;1.42;;;9.90;99.90;;;;;;4821648;29;20062;-96
2022/04/07 09:28:53;;;;;;;10.77;1.48;;;9.90;99.90;;;;;;4823217;29;20460;-96
2022/04/07 09:32:13;;;;;;;;;;;;;;;;;;;;;
2022/04/07 09:39:33;;;;;;;10.32;1.63;;;9.80;99.90;;;;;;4843820;29;20060;-96
2022/04/07 09:46:54;;;;;;;16.27;1.80;;;10.00;99.90;;;;;;4866598;29;20509;-95
2022/04/07 09:50:07;;;;;;;9.88;1.30;;;9.90;99.90;;;;;;4858043;29;20079;-96
2022/04/07 09:58:43;;;;;;;15.68;1.73;;;9.90;99.90;;;;;;4891379;29;20465;-81
2022/04/07 10:01:10;;;;;;;11.18;1.60;;;9.90;99.90;;;;;;4875518;29;20060;-81
2022/04/07 10:03:36;;;;;;;19.35;2.17;;;9.90;99.90;;;;;;4860749;29;20045;-81
2022/04/07 10:06:02;;;;;;;11.38;1.75;;;10.00;99.90;;;;;;4875641;29;20163;-81
2022/04/07 10:08:28;;;;;;;10.57;1.88;;;9.90;99.90;;;;;;4875781;29;20041;-81
2022/04/07 10:10:54;;;;;;;10.02;1.70;;;9.70;99.90;;;;;;4859170;29;20045;-80
2022/04/07 10:13:20;;;;;;;10.20;2.03;;;9.30;99.90;;;;;;4859478;29;20104;-81
2022/04/07 10:15:59;;;;;;;12.63;1.67;;;9.60;99.90;;;;;;4876123;29;20116;-80
2022/04/07 10:18:29;;;;;;;11.30;1.80;;;9.20;99.90;;;;;;4876029;29;20131;-80
2022/04/07 10:20:59;;;;;;;13.40;2.42;;;9.10;99.90;;;;;;4875682;29;20549;-81
2022/04/07 10:23:49;;;;;;;17.73;2.38;;;8.90;99.90;;;;;;4876450;29;20052;-81
2022/04/07 10:26:25;;;;;;;12.38;2.03;;;9.20;99.90;;;;;;4860406;29;20580;-81
2022/04/07 10:28:56;;;;;;;10.60;1.95;;;10.50;99.90;;;;;;4859375;29;20412;-81
2022/04/07 10:31:22;;;;;;;8.52;1.33;;;10.30;99.90;;;;;;4859934;29;20048;-80
2022/04/07 10:33:48;;;;;;;10.32;1.60;;;9.10;99.90;;;;;;4860536;29;20057;-80
2022/04/07 10:36:36;;;;;;;8.43;0.90;;;8.90;99.90;;;;;;4858328;29;20045;-81
2022/04/07 10:39:12;;;;;;;8.15;1.30;;;9.00;99.90;;;;;;4856786;29;20053;-81
2022/04/07 10:41:38;;;;;;;11.00;1.67;;;8.50;99.90;;;;;;4856922;29;20490;-81
2022/04/07 10:44:26;;;;;;;12.65;1.77;;;8.90;99.90;;;;;;4856371;29;20064;-80
2022/04/07 10:47:26;;;;;;;15.50;2.30;;;8.70;99.90;;;;;;4860594;29;20064;-81
2022/04/07 10:50:00;;;;;;;8.32;1.70;;;8.90;99.90;;;;;;4862962;29;20131;-81
2022/04/07 10:52:26;;;;;;;11.80;2.20;;;9.30;99.90;;;;;;4863794;29;20301;-80
2022/04/07 10:55:11;;;;;;;12.10;1.75;;;10.00;99.90;;;;;;4877846;29;20048;-81
2022/04/07 10:58:09;;;;;;;8.75;1.52;;;8.90;99.90;;;;;;4871403;29;20084;-80
2022/04/07 11:00:38;;;;;;;10.43;1.40;;;8.60;99.90;;;;;;4864060;29;20060;-83
2022/04/07 11:03:15;;;;;;;9.80;1.48;;;8.50;99.90;;;;;;4879386;29;20052;-81
2022/04/07 11:06:06;;;;;;;5.50;1.33;;;8.40;99.90;;;;;;4863399;29;20397;-82
2022/04/07 11:08:32;;;;;;;12.50;2.55;;;8.40;99.90;;;;;;4878559;29;20040;-82
2022/04/07 11:10:58;;;;;;;15.77;2.13;;;9.10;99.90;;;;;;4878440;29;20040;-82
2022/04/07 11:13:42;;;;;;;16.35;2.65;;;8.90;99.90;;;;;;4863606;29;20452;-82
2022/04/07 11:16:22;;;;;;;14.27;2.38;;;9.20;99.90;;;;;;4878143;29;20394;-82
2022/04/07 11:19:08;;;;;;;15.68;2.45;;;9.40;99.90;;;;;;4878632;29;20501;-80
2022/04/07 11:21:45;;;;;;;15.95;2.22;;;9.40;99.90;;;;;;4863330;29;20100;-81
2022/04/07 11:24:23;;;;;;;18.92;2.60;;;9.40;99.90;;;;;;4859942;29;20393;-81
2022/04/07 11:26:51;;;;;;;18.92;2.67;;;10.00;99.90;;;;;;4863447;29;20060;-82
2022/04/07 11:29:32;;;;;;;18.27;2.33;;;9.90;99.90;;;;;;4862452;29;20088;-82
2022/04/07 11:32:11;;;;;;;14.57;2.60;;;10.10;99.90;;;;;;4878309;29;20044;-81
2022/04/07 11:34:50;;;;;;;14.13;2.47;;;10.10;99.90;;;;;;4879083;29;20044;-82
2022/04/07 11:37:16;;;;;;;11.00;2.00;;;10.10;99.90;;;;;;4861749;29;20353;-82
2022/04/07 11:39:52;;;;;;;17.15;2.53;;;11.00;99.90;;;;;;4863307;29;20051;-82
2022/04/07 11:42:18;;;;;;;12.80;1.90;;;10.20;99.90;;;;;;4865318;29;20045;-81
2022/04/07 11:44:45;;;;;;;12.93;2.90;;;10.10;99.90;;;;;;4875499;29;20548;-81
2022/04/07 11:47:23;;;;;;;13.98;2.60;;;10.50;99.90;;;;;;4872804;29;20056;-82
2022/04/07 11:49:49;;;;;;;20.92;2.92;;;9.40;99.90;;;;;;4864438;29;20053;-82
2022/04/07 11:52:16;;;;;;;16.67;3.15;;;9.60;99.90;;;;;;4878022;29;20112;-83
2022/04/07 11:54:41;;;;;;;19.35;2.30;;;9.50;99.90;;;;;;4863706;29;20045;-82
2022/04/07 11:57:10;;;;;;;12.02;2.28;;;9.80;99.90;;;;;;4893470;29;20077;-83
2022/04/07 11:59:37;;;;;;;16.95;2.13;;;9.80;99.90;;;;;;4861446;29;20095;-82
2022/04/07 12:02:03;;;;;;;18.52;2.50;;;9.90;99.90;;;;;;4878496;29;20052;-82
2022/04/07 12:04:31;;;;;;;11.10;2.28;;;9.90;99.90;;;;;;4865516;29;20052;-82
2022/04/07 12:07:01;;;;;;;11.85;2.38;;;10.10;99.90;;;;;;4889438;29;20044;-82
2022/04/07 12:09:26;;;;;;;18.27;2.22;;;10.00;99.90;;;;;;4878496;29;20049;-84
2022/04/07 12:11:53;;;;;;;12.25;1.98;;;10.70;99.90;;;;;;4879100;29;20052;-83
2022/04/07 12:14:50;;;;;;;14.15;2.08;;;10.40;99.90;;;;;;4862352;29;20420;-85
2022/04/07 12:18:10;;;;;;;17.25;2.13;;;10.30;99.90;;;;;;4878264;29;20079;-83
2022/04/07 12:20:58;;;;;;;11.73;2.40;;;10.60;99.90;;;;;;4891680;29;20068;-88
2022/04/07 12:23:30;;;;;;;18.55;2.42;;;11.20;99.90;;;;;;4878917;29;20397;-82
2022/04/07 12:26:02;;;;;;;13.38;2.33;;;10.30;99.90;;;;;;4877969;29;20060;-84
2022/04/07 12:28:42;;;;;;;12.47;2.43;;;10.40;99.90;;;;;;4877207;29;20135;-82
2022/04/07 12:31:19;;;;;;;8.93;1.25;;;10.40;99.90;;;;;;4860646;29;20312;-82
2022/04/07 12:33:51;;;;;;;11.32;1.63;;;10.00;99.90;;;;;;4876920;29;20052;-82
2022/04/07 12:36:28;;;;;;;14.10;2.78;;;9.80;99.90;;;;;;4860419;29;20089;-82
2022/04/07 12:39:02;;;;;;;8.32;1.17;;;9.80;99.90;;;;;;4877588;29;20052;-84
2022/04/07 12:41:47;;;;;;;3.95;0.55;;;9.00;99.90;;;;;;4874217;29;20049;-83
2022/04/07 12:44:22;;;;;;;14.10;1.45;;;7.70;99.90;;;;;;4876137;29;20140;-82
2022/04/07 12:46:54;;;;;;;8.70;1.60;;;7.60;99.90;;;;;;4860311;29;20599;-83
2022/04/07 12:49:37;;;;;;;11.80;1.98;;;8.00;99.90;;;;;;4860466;29;20052;-84
2022/04/07 12:52:19;;;;;;;10.80;2.10;;;8.40;99.90;;;;;;4862577;29;20053;-84
2022/04/07 12:55:12;;;;;;;7.13;1.30;;;9.30;99.90;;;;;;4861712;29;20165;-84
2022/04/07 12:57:42;;;;;;;10.50;2.08;;;8.80;99.90;;;;;;4861909;29;20064;-83
2022/04/07 13:00:21;;;;;;;9.73;1.92;;;9.10;99.90;;;;;;4860906;29;20053;-83
2022/04/07 13:02:49;;;;;;;14.90;2.90;;;9.10;99.90;;;;;;4861691;29;20044;-82
2022/04/07 13:05:24;;;;;;;15.52;2.33;;;9.10;99.90;;;;;;4861794;29;20056;-83
2022/04/07 13:08:00;;;;;;;11.88;1.60;;;8.90;99.90;;;;;;4877878;29;20047;-83
2022/04/07 13:10:27;;;;;;;8.55;1.58;;;8.80;99.90;;;;;;4860574;29;20136;-83
2022/04/07 13:12:54;;;;;;;9.20;2.30;;;9.40;99.90;;;;;;4862070;29;20045;-83
2022/04/07 13:15:29;;;;;;;9.80;1.60;;;8.40;99.90;;;;;;4860833;29;20163;-81
2022/04/07 13:17:55;;;;;;;12.07;1.77;;;8.30;99.90;;;;;;4859430;29;20049;-82
2022/04/07 13:20:21;;;;;;;13.75;1.90;;;8.30;99.90;;;;;;4858030;29;20379;-82
2022/04/07 13:22:48;;;;;;;12.10;1.92;;;8.60;99.90;;;;;;4858371;29;20115;-82
2022/04/07 13:25:28;;;;;;;11.35;1.67;;;8.50;99.90;;;;;;4857612;29;20521;-83
2022/04/07 13:27:54;;;;;;;13.98;2.35;;;8.90;99.90;;;;;;4858553;29;20478;-82
2022/04/07 13:30:20;;;;;;;18.75;2.65;;;8.30;99.90;;;;;;4856898;29;20108;-82
2022/04/07 13:32:55;;;;;;;8.18;1.42;;;8.10;99.90;;;;;;4860883;29;20036;-83
2022/04/07 13:35:20;;;;;;;14.35;1.98;;;8.10;99.90;;;;;;4860216;29;20095;-83
2022/04/07 13:37:51;;;;;;;9.45;2.10;;;7.20;99.90;;;;;;4862132;29;20076;-83
2022/04/07 13:40:17;;;;;;;10.85;1.60;;;7.00;99.90;;;;;;4871056;29;20088;-84
2022/04/07 13:43:03;;;;;;;11.57;1.40;;;6.80;99.90;;;;;;4861353;29;20045;-84
2022/04/07 13:45:45;;;;;;;7.38;1.55;;;7.10;99.90;;;;;;4875019;29;20052;-83
2022/04/07 13:48:11;;;;;;;6.65;1.27;;;6.80;99.90;;;;;;4860913;29;20053;-83
2022/04/07 13:50:41;;;;;;;4.95;1.02;;;7.30;99.90;;;;;;4862479;29;20056;-83
2022/04/07 13:53:08;;;;;;;5.47;1.02;;;6.90;99.90;;;;;;4893446;29;20488;-85
2022/04/07 13:55:39;;;;;;;7.95;1.27;;;6.90;99.90;;;;;;4863523;29;20056;-85
2022/04/07 13:58:05;;;;;;;8.10;1.27;;;6.70;99.90;;;;;;4859904;29;20048;-84
2022/04/07 14:00:32;;;;;;;7.65;1.00;;;7.00;99.90;;;;;;4875454;29;20112;-84
2022/04/07 14:03:13;;;;;;;4.47;0.93;;;7.00;99.90;;;;;;4882221;29;20112;-84
2022/04/07 14:05:55;;;;;;;6.07;0.90;;;7.50;99.90;;;;;;4857034;29;20044;-84
2022/04/07 14:08:21;;;;;;;5.75;0.93;;;7.80;99.90;;;;;;4851067;29;20041;-83
2022/04/07 14:11:02;;;;;;;9.30;1.65;;;7.80;99.90;;;;;;4860890;29;20128;-83
2022/04/07 14:13:30;;;;;;;5.07;1.02;;;8.10;99.90;;;;;;4859916;29;20048;-84
2022/04/07 14:15:56;;;;;;;5.50;0.93;;;7.80;99.90;;;;;;4860042;29;20080;-84
2022/04/07 14:18:37;;;;;;;6.05;0.93;;;7.50;99.90;;;;;;4876250;29;20045;-85
2022/04/07 14:21:03;;;;;;;6.95;0.95;;;7.60;99.90;;;;;;4860222;29;20044;-84
2022/04/07 14:23:29;;;;;;;8.80;1.42;;;8.30;99.90;;;;;;4864748;29;20044;-83
2022/04/07 14:25:55;;;;;;;7.18;1.27;;;7.90;99.90;;;;;;4862977;29;20105;-84
2022/04/07 14:28:33;;;;;;;7.05;1.35;;;8.10;99.90;;;;;;4864062;29;20045;-84
2022/04/07 14:30:59;;;;;;;3.25;0.80;;;8.60;99.90;;;;;;4879277;29;20485;-84
2022/04/07 14:33:25;;;;;;;8.95;1.30;;;8.40;99.90;;;;;;4880047;29;20045;-83
2022/04/07 14:35:51;;;;;;;6.50;1.02;;;7.90;99.90;;;;;;4879731;29;20053;-83
2022/04/07 14:38:32;;;;;;;10.88;1.48;;;9.40;99.90;;;;;;4860768;29;20052;-83
2022/04/07 14:40:57;;;;;;;13.05;2.25;;;8.90;99.90;;;;;;4879489;29;20564;-84
2022/04/07 14:43:24;;;;;;;7.93;1.50;;;9.20;99.90;;;;;;4868978;29;20049;-85
2022/04/07 14:45:53;;;;;;;13.25;1.40;;;9.00;99.90;;;;;;4878397;29;20399;-84
2022/04/07 14:48:31;;;;;;;15.10;1.98;;;8.90;99.90;;;;;;4863735;29;20048;-84
2022/04/07 14:50:57;;;;;;;12.88;1.90;;;8.80;99.90;;;;;;4864022;29;20549;-84
2022/04/07 14:53:23;;;;;;;8.77;2.10;;;8.70;99.90;;;;;;4863229;29;20052;-83
2022/04/07 14:55:49;;;;;;;12.63;2.20;;;9.50;99.90;;;;;;4875421;29;20137;-83
2022/04/07 14:58:40;;;;;;;16.15;3.00;;;8.80;99.90;;;;;;4886641;23;20056;-84
2022/04/07 15:01:06;;;;;;;18.83;2.33;;;8.50;99.90;;;;;;4903434;29;20052;-83
2022/04/07 15:03:35;;;;;;;13.05;2.33;;;8.50;99.90;;;;;;4906864;29;20415;-84
2022/04/07 15:06:01;;;;;;;12.98;2.20;;;8.40;99.90;;;;;;4904011;29;20048;-83
2022/04/07 15:08:26;;;;;;;14.65;1.75;;;8.30;99.90;;;;;;4896720;29;20480;-83
2022/04/07 15:10:54;;;;;;;11.43;2.10;;;8.20;99.90;;;;;;4887274;29;20052;-84
2022/04/07 15:13:35;;;;;;;15.60;1.90;;;8.90;99.90;;;;;;4884108;29;20542;-84
2022/04/07 15:16:02;;;;;;;14.00;2.33;;;7.80;99.90;;;;;;4872820;29;20404;-83
2022/04/07 15:18:27;;;;;;;13.20;2.35;;;9.00;99.90;;;;;;4884645;29;20474;-82
2022/04/07 15:21:02;;;;;;;12.18;2.25;;;8.20;99.90;;;;;;4885019;29;20500;-84
2022/04/07 15:23:28;;;;;;;13.23;1.90;;;8.30;99.90;;;;;;4881251;29;20056;-83
2022/04/07 15:25:54;;;;;;;10.70;1.88;;;8.30;99.90;;;;;;4905827;29;20063;-84
2022/04/07 15:28:20;;;;;;;17.30;2.08;;;8.30;99.90;;;;;;4891994;29;20059;-83
2022/04/07 15:30:52;;;;;;;12.15;2.40;;;9.40;99.90;;;;;;4895495;29;20047;-84
2022/04/07 15:33:18;;;;;;;13.85;2.00;;;8.50;99.90;;;;;;4894188;29;20048;-83
2022/04/07 15:35:44;;;;;;;6.50;1.17;;;8.50;99.90;;;;;;4886468;29;20040;-83
2022/04/07 15:38:10;;;;;;;11.35;1.80;;;9.10;99.90;;;;;;4887583;29;20452;-85
2022/04/07 15:40:56;;;;;;;13.45;2.42;;;8.60;99.90;;;;;;4906151;29;20074;-84
2022/04/07 15:43:27;;;;;;;14.20;2.97;;;9.40;99.90;;;;;;4895566;29;20063;-84
2022/04/07 15:46:05;;;;;;;19.67;2.35;;;8.50;99.90;;;;;;4905334;29;20466;-83
2022/04/07 15:48:31;;;;;;;18.23;2.45;;;8.40;99.90;;;;;;4907658;29;20119;-84
2022/04/07 15:50:56;;;;;;;8.82;1.75;;;9.10;99.90;;;;;;4899190;29;20536;-84
2022/04/07 15:53:22;;;;;;;11.15;1.90;;;8.80;99.90;;;;;;4890329;29;20508;-83
2022/04/07 15:56:03;;;;;;;9.32;1.33;;;9.70;99.90;;;;;;4893089;29;20051;-83
2022/04/07 15:58:29;;;;;;;15.18;2.85;;;8.80;99.90;;;;;;4892870;29;20115;-84
2022/04/07 16:00:56;;;;;;;15.38;1.90;;;9.10;99.90;;;;;;4880034;29;20048;-83